Time;durP1;ratioP1;P1;durP2;ratioP2;P2;SDS_P1;SDS_P2;PMS_P1;PMS_P2;Temp;Humidity;BMP_temperature;BMP_pressure;BME280_temperature;BME280_humidity;BME280_pressure;Samples;Min_cycle;Max_cycle;Signal;HPM_P1;HPM_P2
2023/01/27 00:00:50;;;;;;;2.65;2.25;;;20.70;38.00;;;;;;5056630;28;20467;-63
2023/01/27 00:03:19;;;;;;;4.50;3.72;;;20.70;38.00;;;;;;5055908;28;20045;-63
2023/01/27 00:05:46;;;;;;;3.95;3.00;;;20.70;38.00;;;;;;5056058;28;20454;-63
2023/01/27 00:08:14;;;;;;;2.92;2.65;;;20.70;38.00;;;;;;5056358;28;20041;-63
2023/01/27 00:10:42;;;;;;;2.60;2.40;;;20.70;38.00;;;;;;5053946;28;20053;-63
2023/01/27 00:13:30;;;;;;;4.38;3.15;;;20.70;38.00;;;;;;5055418;28;20140;-63
2023/01/27 00:15:58;;;;;;;3.42;2.90;;;20.70;38.00;;;;;;5055411;28;20045;-64
2023/01/27 00:18:25;;;;;;;3.75;3.17;;;20.70;38.00;;;;;;5055927;28;20098;-63
2023/01/27 00:26:26;;;;;;;2.67;2.47;;;20.70;37.90;;;;;;5055488;28;20080;-63
2023/01/27 00:28:53;;;;;;;4.20;3.05;;;20.60;37.90;;;;;;5055560;28;20412;-63
2023/01/27 00:34:07;;;;;;;3.20;2.80;;;20.60;37.90;;;;;;5054257;28;20045;-64
2023/01/27 00:36:37;;;;;;;3.45;3.15;;;20.70;37.90;;;;;;5055705;28;20045;-63
2023/01/27 00:39:06;;;;;;;4.30;3.55;;;20.70;37.90;;;;;;5055762;28;20470;-64
2023/01/27 00:41:34;;;;;;;4.43;3.08;;;20.60;37.90;;;;;;5053899;28;20051;-63
2023/01/27 00:44:01;;;;;;;3.03;2.70;;;20.60;37.90;;;;;;5055477;28;20041;-63
2023/01/27 00:46:28;;;;;;;3.33;3.03;;;20.60;37.90;;;;;;5055924;28;20083;-63
2023/01/27 00:48:56;;;;;;;4.47;2.78;;;20.60;37.90;;;;;;5055551;28;20512;-63
2023/01/27 00:51:23;;;;;;;4.07;3.10;;;20.60;37.90;;;;;;5055345;28;20374;-63
2023/01/27 00:53:50;;;;;;;3.28;2.95;;;20.60;37.90;;;;;;5049736;28;20131;-63
2023/01/27 00:56:18;;;;;;;3.35;2.92;;;20.60;37.90;;;;;;5054108;28;20404;-63
2023/01/27 00:58:45;;;;;;;2.92;2.63;;;20.60;37.90;;;;;;5055581;28;20091;-63
2023/01/27 01:01:14;;;;;;;4.38;3.20;;;20.60;37.90;;;;;;5055079;28;20053;-63
2023/01/27 01:03:42;;;;;;;3.25;2.85;;;20.60;37.90;;;;;;5054804;28;20045;-63
2023/01/27 01:06:12;;;;;;;3.20;2.90;;;20.60;37.90;;;;;;5054398;28;20102;-64
2023/01/27 01:08:40;;;;;;;3.90;3.13;;;20.60;37.90;;;;;;5055115;28;20437;-63
2023/01/27 01:11:09;;;;;;;3.03;2.72;;;20.60;37.90;;;;;;5054639;28;20048;-64
2023/01/27 01:13:36;;;;;;;3.17;2.60;;;20.60;37.90;;;;;;5055289;28;20059;-63
2023/01/27 01:16:10;;;;;;;3.22;2.70;;;20.60;37.90;;;;;;5054883;28;20047;-63
2023/01/27 01:18:37;;;;;;;4.43;3.20;;;20.60;37.90;;;;;;5054142;28;20485;-63
2023/01/27 01:21:05;;;;;;;3.03;2.58;;;20.60;37.90;;;;;;5054807;28;20103;-63
2023/01/27 01:23:34;;;;;;;3.22;2.95;;;20.60;37.90;;;;;;5054512;28;20055;-63
2023/01/27 01:26:01;;;;;;;4.22;3.40;;;20.60;37.80;;;;;;5054557;28;20394;-63
2023/01/27 01:28:28;;;;;;;3.03;2.70;;;20.60;37.80;;;;;;5055108;28;20053;-63
2023/01/27 01:30:55;;;;;;;3.80;3.15;;;20.60;37.80;;;;;;5054705;28;20124;-63
2023/01/27 01:33:22;;;;;;;4.35;3.05;;;20.60;37.80;;;;;;5054615;28;20049;-63
2023/01/27 01:35:49;;;;;;;3.22;2.80;;;20.60;37.80;;;;;;5054460;28;20049;-63
2023/01/27 01:38:16;;;;;;;4.50;3.35;;;20.60;37.80;;;;;;5054194;28;20052;-63
2023/01/27 01:40:44;;;;;;;4.47;3.47;;;20.60;37.80;;;;;;5054274;28;20412;-63
2023/01/27 01:43:15;;;;;;;4.38;3.10;;;20.60;37.80;;;;;;5054218;28;20045;-66
2023/01/27 01:45:53;;;;;;;4.13;3.20;;;20.60;37.80;;;;;;5054446;28;20568;-64
2023/01/27 01:48:35;;;;;;;4.05;3.58;;;20.60;37.70;;;;;;5053849;28;20051;-63
2023/01/27 01:51:20;;;;;;;4.78;3.33;;;20.60;37.80;;;;;;5054424;28;20088;-63
2023/01/27 01:53:56;;;;;;;3.20;2.70;;;20.60;37.80;;;;;;5053954;28;20560;-63
2023/01/27 01:56:29;;;;;;;4.25;3.40;;;20.60;37.80;;;;;;5053640;28;20491;-63
2023/01/27 01:59:02;;;;;;;3.40;3.10;;;20.60;37.80;;;;;;5053872;28;20051;-63
2023/01/27 02:01:30;;;;;;;3.72;3.35;;;20.60;37.70;;;;;;5053936;28;20045;-63
2023/01/27 02:04:02;;;;;;;4.07;3.45;;;20.50;37.70;;;;;;5052774;28;20049;-63
2023/01/27 02:06:38;;;;;;;4.13;3.17;;;20.50;37.80;;;;;;5054393;28;20076;-63
2023/01/27 02:09:06;;;;;;;3.80;2.88;;;20.60;37.80;;;;;;5054364;28;20080;-63
2023/01/27 02:11:33;;;;;;;3.58;3.05;;;20.50;37.70;;;;;;5053914;28;20045;-63
2023/01/27 02:14:01;;;;;;;3.67;3.38;;;20.50;37.70;;;;;;5053279;28;20051;-63
2023/01/27 02:16:30;;;;;;;3.90;3.22;;;20.50;37.70;;;;;;5053903;28;20124;-63
2023/01/27 02:18:57;;;;;;;3.47;2.97;;;20.50;37.70;;;;;;5053355;28;20060;-63
2023/01/27 02:21:24;;;;;;;3.00;2.47;;;20.50;37.70;;;;;;5053599;28;20045;-63
2023/01/27 02:24:09;;;;;;;5.38;3.55;;;20.50;37.70;;;;;;5053929;28;20048;-63
2023/01/27 02:26:42;;;;;;;3.13;2.80;;;20.50;37.80;;;;;;5053347;28;20048;-63
2023/01/27 02:29:12;;;;;;;3.60;3.05;;;20.50;37.80;;;;;;5053435;28;20080;-63
2023/01/27 02:31:39;;;;;;;4.05;3.65;;;20.50;37.80;;;;;;5053639;28;20132;-63
2023/01/27 02:34:17;;;;;;;3.72;3.38;;;20.50;37.80;;;;;;5053211;28;20084;-63
2023/01/27 02:36:50;;;;;;;3.58;3.00;;;20.50;37.80;;;;;;5053626;28;20145;-63
2023/01/27 02:39:21;;;;;;;4.32;3.28;;;20.50;37.80;;;;;;5053743;28;20056;-63
2023/01/27 02:41:52;;;;;;;3.15;2.85;;;20.50;37.80;;;;;;5052132;28;20472;-63
2023/01/27 02:44:19;;;;;;;5.20;3.13;;;20.50;37.80;;;;;;5053502;28;20124;-63
2023/01/27 02:46:46;;;;;;;3.38;2.85;;;20.40;37.70;;;;;;5052805;28;20049;-63
2023/01/27 02:49:14;;;;;;;3.25;2.83;;;20.50;37.80;;;;;;5052715;28;20041;-63
2023/01/27 02:51:41;;;;;;;4.45;3.60;;;20.50;37.80;;;;;;5052742;28;20045;-63
2023/01/27 02:54:08;;;;;;;4.47;3.10;;;20.40;37.70;;;;;;5052528;28;20051;-63
2023/01/27 02:56:35;;;;;;;4.38;3.40;;;20.40;37.80;;;;;;5052574;28;20068;-63
2023/01/27 02:59:02;;;;;;;3.22;2.88;;;20.40;37.70;;;;;;5053229;28;20051;-63
2023/01/27 03:01:31;;;;;;;4.93;3.65;;;20.40;37.70;;;;;;5053177;28;20045;-64
2023/01/27 03:03:58;;;;;;;4.88;3.67;;;20.40;37.70;;;;;;5052763;28;20435;-63
2023/01/27 03:06:26;;;;;;;3.85;3.00;;;20.40;37.80;;;;;;5052986;28;20127;-64
2023/01/27 03:08:53;;;;;;;4.38;3.10;;;20.40;37.80;;;;;;5052248;28;20049;-63
2023/01/27 03:14:07;;;;;;;3.35;2.95;;;20.40;37.70;;;;;;5052573;28;20132;-63
2023/01/27 03:19:22;;;;;;;3.35;3.03;;;20.40;37.70;;;;;;5052678;28;20052;-63
2023/01/27 03:21:49;;;;;;;4.72;3.30;;;20.40;37.70;;;;;;5051819;28;20044;-63
2023/01/27 03:24:17;;;;;;;3.72;3.03;;;20.40;37.70;;;;;;5053051;28;20122;-63
2023/01/27 03:26:45;;;;;;;4.57;3.45;;;20.40;37.70;;;;;;5038710;28;20052;-63
2023/01/27 03:31:59;;;;;;;4.20;3.65;;;20.40;37.80;;;;;;5051777;28;20140;-63
2023/01/27 03:34:26;;;;;;;3.85;3.10;;;20.40;37.80;;;;;;5052655;28;20136;-63
2023/01/27 03:48:01;;;;;;;3.08;2.67;;;20.40;37.60;;;;;;5052243;28;20053;-63
2023/01/27 03:50:36;;;;;;;3.35;2.97;;;20.40;37.60;;;;;;5052327;28;20428;-63
2023/01/27 03:53:04;;;;;;;4.28;3.15;;;20.40;37.60;;;;;;5052638;28;20049;-63
2023/01/27 03:55:33;;;;;;;3.40;2.95;;;20.40;37.60;;;;;;5052160;28;20045;-63
2023/01/27 03:58:13;;;;;;;3.97;3.50;;;20.40;37.60;;;;;;5052646;28;20468;-63
2023/01/27 04:00:40;;;;;;;4.10;2.90;;;20.40;37.60;;;;;;5051457;28;20080;-63
2023/01/27 04:08:42;;;;;;;2.55;2.33;;;20.40;37.70;;;;;;5031881;28;20056;-64
2023/01/27 04:14:00;;;;;;;3.08;2.80;;;20.40;37.60;;;;;;5032178;28;20262;-63
2023/01/27 04:16:29;;;;;;;3.55;2.90;;;20.30;37.60;;;;;;5032071;28;20049;-63
2023/01/27 04:18:56;;;;;;;3.13;2.80;;;20.30;37.60;;;;;;5048820;28;20048;-63
2023/01/27 04:21:24;;;;;;;2.75;2.55;;;20.40;37.60;;;;;;5051268;28;20045;-63
2023/01/27 04:23:52;;;;;;;2.80;2.60;;;20.30;37.60;;;;;;5048174;28;20049;-64
2023/01/27 04:26:20;;;;;;;3.40;3.10;;;20.40;37.60;;;;;;5051128;28;20549;-63
2023/01/27 04:28:48;;;;;;;4.32;3.17;;;20.30;37.60;;;;;;5054508;28;20348;-63
2023/01/27 04:31:16;;;;;;;3.33;2.63;;;20.30;37.60;;;;;;5055555;28;20048;-63
2023/01/27 04:33:44;;;;;;;3.85;3.10;;;20.30;37.60;;;;;;5054906;28;20059;-64
2023/01/27 04:36:11;;;;;;;3.30;2.92;;;20.30;37.60;;;;;;5055160;28;20049;-63
2023/01/27 04:38:38;;;;;;;3.58;2.53;;;20.30;37.60;;;;;;5053658;28;20132;-63
2023/01/27 04:41:06;;;;;;;2.75;2.55;;;20.30;37.60;;;;;;5054646;28;20457;-63
2023/01/27 04:43:33;;;;;;;3.15;2.50;;;20.30;37.60;;;;;;5053436;28;20127;-63
2023/01/27 04:46:00;;;;;;;2.70;2.47;;;20.30;37.60;;;;;;5052619;28;20484;-63
2023/01/27 04:48:27;;;;;;;2.75;2.45;;;20.30;37.60;;;;;;5053967;28;20045;-63
2023/01/27 04:50:54;;;;;;;2.45;2.25;;;20.30;37.60;;;;;;5052326;28;20049;-63
2023/01/27 04:53:22;;;;;;;2.65;2.38;;;20.30;37.60;;;;;;5051152;28;20128;-63
2023/01/27 04:55:49;;;;;;;3.35;3.00;;;20.30;37.60;;;;;;5043279;28;20065;-64
2023/01/27 04:58:17;;;;;;;3.00;2.47;;;20.30;37.60;;;;;;5052107;28;20045;-63
2023/01/27 05:00:44;;;;;;;2.58;2.38;;;20.30;37.60;;;;;;5051528;28;20048;-65
2023/01/27 05:03:11;;;;;;;3.15;2.72;;;20.30;37.60;;;;;;5043785;28;20402;-63
2023/01/27 05:05:39;;;;;;;4.75;3.28;;;20.30;37.60;;;;;;5041901;28;20049;-63
2023/01/27 05:08:09;;;;;;;3.80;3.20;;;20.30;37.60;;;;;;5042861;28;20120;-63
2023/01/27 05:10:36;;;;;;;2.97;2.65;;;20.30;37.50;;;;;;5048661;28;20128;-63
2023/01/27 05:13:03;;;;;;;2.85;2.50;;;20.30;37.60;;;;;;5054808;28;20519;-63
2023/01/27 05:15:30;;;;;;;3.40;2.67;;;20.30;37.60;;;;;;5054488;28;20905;-63
2023/01/27 05:17:58;;;;;;;3.08;2.67;;;20.30;37.60;;;;;;5054068;28;20057;-63
2023/01/27 05:20:25;;;;;;;3.15;2.70;;;20.30;37.60;;;;;;5053852;28;20120;-63
2023/01/27 05:23:33;;;;;;;3.45;2.75;;;20.30;37.60;;;;;;5054313;28;20425;-64
2023/01/27 05:25:43;;;;;;;2.90;2.63;;;20.30;37.60;;;;;;5040842;28;20171;-63
2023/01/27 05:28:11;;;;;;;2.45;2.25;;;20.30;37.60;;;;;;5047044;28;20382;-63
2023/01/27 05:30:38;;;;;;;2.63;2.40;;;20.30;37.50;;;;;;5048792;28;20484;-63
2023/01/27 05:33:07;;;;;;;2.70;2.50;;;20.30;37.50;;;;;;5045231;28;20115;-63
2023/01/27 05:35:34;;;;;;;3.03;2.67;;;20.20;37.50;;;;;;5044320;28;20124;-63
2023/01/27 05:38:01;;;;;;;4.50;3.63;;;20.20;37.40;;;;;;5048878;28;20123;-63
2023/01/27 05:40:28;;;;;;;4.32;3.92;;;20.20;37.20;;;;;;5045130;28;20054;-63
2023/01/27 05:42:55;;;;;;;3.83;3.47;;;20.20;37.10;;;;;;5051730;28;20049;-63
2023/01/27 05:45:23;;;;;;;4.25;3.30;;;20.20;37.10;;;;;;5052642;28;20569;-63
2023/01/27 05:47:50;;;;;;;4.88;3.45;;;20.20;37.10;;;;;;5053887;28;20053;-63
2023/01/27 05:50:17;;;;;;;5.82;3.58;;;20.20;37.10;;;;;;5045505;28;20045;-63
2023/01/27 05:52:45;;;;;;;4.20;3.28;;;20.20;37.10;;;;;;5042791;28;20048;-63
2023/01/27 05:55:12;;;;;;;3.90;2.90;;;20.20;37.10;;;;;;5043598;28;20592;-63
2023/01/27 05:57:40;;;;;;;4.00;3.47;;;20.20;37.10;;;;;;5040708;28;20104;-63
2023/01/27 06:00:07;;;;;;;4.28;3.25;;;20.20;37.20;;;;;;5043442;28;20045;-63
2023/01/27 06:02:34;;;;;;;4.22;3.22;;;20.30;37.20;;;;;;5044793;28;20473;-63
2023/01/27 06:05:02;;;;;;;4.15;3.75;;;20.30;37.20;;;;;;5045465;28;20087;-63
2023/01/27 06:07:29;;;;;;;4.80;3.65;;;20.30;37.20;;;;;;5049824;28;20044;-63
2023/01/27 06:09:56;;;;;;;4.60;3.35;;;20.30;37.20;;;;;;5044883;28;20482;-63
2023/01/27 06:12:23;;;;;;;4.07;3.35;;;20.30;37.10;;;;;;5039621;28;20060;-63
2023/01/27 06:14:50;;;;;;;4.10;3.50;;;20.30;37.10;;;;;;5043748;28;20064;-63
2023/01/27 06:17:17;;;;;;;4.38;3.50;;;20.30;37.00;;;;;;5043612;28;20524;-63
2023/01/27 06:19:44;;;;;;;4.63;3.60;;;20.30;37.00;;;;;;5042108;28;20045;-63
2023/01/27 06:22:12;;;;;;;6.20;3.50;;;20.40;37.00;;;;;;5043706;28;20037;-63
2023/01/27 06:24:39;;;;;;;4.03;3.58;;;20.40;37.00;;;;;;5044366;28;20493;-62
2023/01/27 06:27:06;;;;;;;5.35;4.07;;;20.40;36.90;;;;;;5041669;28;20072;-63
2023/01/27 06:29:33;;;;;;;4.75;3.40;;;20.40;36.90;;;;;;5041323;28;20802;-63
2023/01/27 06:32:00;;;;;;;4.22;3.45;;;20.40;36.90;;;;;;5039736;28;20069;-66
2023/01/27 06:34:29;;;;;;;5.20;3.95;;;20.50;36.90;;;;;;5039685;28;20045;-66
2023/01/27 06:36:56;;;;;;;5.43;4.10;;;20.50;36.90;;;;;;5043348;28;20132;-66
2023/01/27 06:39:23;;;;;;;5.95;4.55;;;20.50;36.80;;;;;;5037106;28;20044;-63
2023/01/27 06:41:50;;;;;;;5.32;4.18;;;20.60;36.80;;;;;;5033865;28;20059;-64
2023/01/27 06:44:17;;;;;;;5.07;4.15;;;20.60;36.70;;;;;;5036256;28;20292;-62
2023/01/27 06:46:45;;;;;;;5.85;4.55;;;20.70;36.70;;;;;;5038467;28;20475;-64
2023/01/27 06:49:14;;;;;;;6.30;4.30;;;20.70;36.50;;;;;;5036649;28;20056;-63
2023/01/27 06:51:41;;;;;;;7.13;4.10;;;20.70;36.60;;;;;;5040716;28;20136;-63
2023/01/27 06:54:09;;;;;;;6.50;3.92;;;20.80;36.80;;;;;;5033595;28;20057;-63
2023/01/27 06:56:36;;;;;;;5.57;4.25;;;20.80;36.90;;;;;;5035279;28;20055;-64
2023/01/27 06:59:04;;;;;;;9.88;4.35;;;20.80;37.10;;;;;;5044289;28;20558;-63
2023/01/27 07:01:32;;;;;;;6.07;4.68;;;20.90;37.20;;;;;;5044528;28;20508;-64
2023/01/27 07:03:59;;;;;;;6.65;4.65;;;20.90;37.30;;;;;;5044837;28;20045;-64
2023/01/27 07:06:26;;;;;;;6.25;4.25;;;20.90;37.30;;;;;;5029867;28;20049;-66
2023/01/27 07:08:53;;;;;;;7.68;4.85;;;21.00;37.30;;;;;;5032821;28;20084;-65
2023/01/27 07:11:22;;;;;;;10.23;4.97;;;21.00;37.30;;;;;;5032509;28;20053;-66
2023/01/27 07:13:50;;;;;;;6.32;5.10;;;21.10;37.20;;;;;;5031387;28;20139;-66
2023/01/27 07:16:17;;;;;;;7.82;5.15;;;21.10;37.10;;;;;;5036103;28;20057;-66
2023/01/27 07:18:44;;;;;;;7.05;5.15;;;21.10;37.10;;;;;;5038257;28;20052;-66
2023/01/27 07:21:11;;;;;;;9.63;5.90;;;21.20;37.20;;;;;;5040505;28;20080;-67
2023/01/27 07:23:39;;;;;;;8.73;5.47;;;21.20;37.40;;;;;;5038826;28;20052;-70
2023/01/27 07:26:06;;;;;;;7.93;5.95;;;21.30;37.50;;;;;;5037330;28;20063;-69
2023/01/27 07:28:50;;;;;;;7.47;5.18;;;21.30;37.60;;;;;;5037731;28;20516;-66
2023/01/27 07:31:18;;;;;;;7.22;4.97;;;21.30;37.50;;;;;;5036189;28;20461;-64
2023/01/27 07:33:45;;;;;;;6.85;5.90;;;21.40;37.60;;;;;;5036550;28;20053;-67
2023/01/27 07:36:12;;;;;;;6.40;4.55;;;21.40;37.60;;;;;;5041923;28;20517;-65
2023/01/27 07:38:39;;;;;;;8.70;5.43;;;21.50;37.60;;;;;;5038225;28;20139;-65
2023/01/27 07:41:07;;;;;;;8.00;5.43;;;21.50;37.60;;;;;;5039766;28;20044;-65
2023/01/27 07:43:34;;;;;;;6.38;5.30;;;21.60;37.50;;;;;;5042249;28;20591;-64
2023/01/27 07:46:02;;;;;;;9.32;5.70;;;21.60;37.30;;;;;;5036813;28;20100;-65
2023/01/27 07:48:29;;;;;;;9.13;5.75;;;21.60;37.10;;;;;;5035987;28;20057;-65
2023/01/27 07:50:56;;;;;;;9.90;6.07;;;21.60;36.90;;;;;;5038067;28;20051;-63
2023/01/27 07:53:24;;;;;;;6.88;5.40;;;21.70;36.90;;;;;;5032014;28;20040;-64
2023/01/27 07:55:52;;;;;;;9.10;5.63;;;21.70;36.80;;;;;;5033621;28;20049;-62
2023/01/27 07:58:19;;;;;;;8.25;5.60;;;21.80;36.70;;;;;;5037991;28;20053;-60
2023/01/27 08:00:46;;;;;;;7.60;5.63;;;21.80;36.80;;;;;;5031787;28;20049;-64
2023/01/27 08:03:22;;;;;;;9.10;5.65;;;21.80;36.90;;;;;;5037572;28;20460;-63
2023/01/27 08:05:50;;;;;;;8.50;6.05;;;21.90;37.10;;;;;;5039431;28;20049;-64
2023/01/27 08:08:18;;;;;;;8.40;6.07;;;21.90;37.10;;;;;;5038738;28;20175;-66
2023/01/27 08:10:48;;;;;;;8.43;5.78;;;22.00;37.10;;;;;;5038828;28;20482;-65
2023/01/27 08:13:15;;;;;;;10.50;5.78;;;22.00;36.90;;;;;;5041549;28;20089;-65
2023/01/27 08:15:42;;;;;;;8.20;5.45;;;22.10;36.90;;;;;;5040666;28;20048;-63
2023/01/27 08:18:10;;;;;;;8.63;6.07;;;22.10;36.90;;;;;;5040760;28;20083;-61
2023/01/27 08:20:38;;;;;;;10.77;6.18;;;22.20;36.90;;;;;;5044754;28;20045;-63
2023/01/27 08:23:05;;;;;;;12.80;6.00;;;22.20;36.90;;;;;;5045225;28;20040;-67
2023/01/27 08:25:32;;;;;;;12.50;6.22;;;22.20;36.90;;;;;;5040068;28;20057;-64
2023/01/27 08:27:59;;;;;;;11.80;6.65;;;22.20;37.00;;;;;;5045870;28;20233;-64
2023/01/27 08:30:27;;;;;;;15.43;6.50;;;22.30;37.00;;;;;;5036997;28;20507;-63
2023/01/27 08:32:55;;;;;;;11.40;7.10;;;22.30;36.90;;;;;;5040408;28;20496;-61
2023/01/27 08:35:22;;;;;;;14.23;6.20;;;22.40;36.90;;;;;;5038481;28;20132;-66
2023/01/27 08:37:50;;;;;;;19.23;7.22;;;22.40;36.90;;;;;;5039397;28;20054;-64
2023/01/27 08:40:18;;;;;;;14.90;6.95;;;22.40;36.60;;;;;;5037465;28;21601;-64
2023/01/27 08:42:45;;;;;;;17.55;6.75;;;22.50;36.50;;;;;;5040807;28;20048;-66
2023/01/27 08:45:12;;;;;;;10.10;6.22;;;22.50;36.30;;;;;;5040240;28;20057;-66
2023/01/27 08:47:40;;;;;;;24.35;6.93;;;22.50;36.20;;;;;;5039919;28;20069;-62
2023/01/27 08:50:08;;;;;;;12.73;7.18;;;22.50;36.20;;;;;;5038579;28;20438;-62
2023/01/27 08:52:35;;;;;;;12.10;6.55;;;22.50;36.20;;;;;;5042224;28;20128;-61
2023/01/27 08:55:03;;;;;;;15.07;7.25;;;22.50;36.20;;;;;;5040151;28;20053;-68
2023/01/27 08:57:31;;;;;;;17.48;7.80;;;22.60;36.20;;;;;;5039248;28;20229;-66
2023/01/27 08:59:58;;;;;;;16.77;7.13;;;22.60;36.20;;;;;;5041035;28;20060;-66
2023/01/27 09:02:26;;;;;;;11.80;6.82;;;22.60;36.20;;;;;;5040188;28;20045;-66
2023/01/27 09:04:53;;;;;;;9.65;6.82;;;22.60;36.20;;;;;;5046678;28;20045;-67
2023/01/27 09:07:21;;;;;;;10.18;6.95;;;22.70;36.30;;;;;;5044512;28;20045;-67
2023/01/27 09:09:48;;;;;;;16.35;6.72;;;22.70;36.30;;;;;;5039373;28;20057;-65
2023/01/27 09:12:21;;;;;;;9.32;6.05;;;22.70;36.30;;;;;;5036264;28;20064;-62
2023/01/27 09:14:48;;;;;;;11.02;7.05;;;22.70;36.30;;;;;;5043119;28;20048;-65
2023/01/27 09:17:18;;;;;;;12.73;7.38;;;22.70;36.30;;;;;;5040600;28;20128;-64
2023/01/27 09:19:46;;;;;;;11.07;6.60;;;22.80;36.30;;;;;;5044644;28;20051;-63
2023/01/27 09:22:13;;;;;;;10.68;6.57;;;22.80;36.30;;;;;;5043636;28;20091;-66
2023/01/27 09:24:40;;;;;;;12.13;6.95;;;22.80;36.20;;;;;;5039340;28;20056;-66
2023/01/27 09:27:07;;;;;;;11.82;7.07;;;22.80;36.20;;;;;;5044055;28;20131;-63
2023/01/27 09:29:35;;;;;;;11.57;6.72;;;22.90;36.10;;;;;;5035805;28;20785;-65
2023/01/27 09:32:03;;;;;;;10.40;6.80;;;22.90;36.10;;;;;;5041675;28;20059;-64
2023/01/27 09:34:30;;;;;;;10.70;5.78;;;23.00;36.10;;;;;;5034303;28;20053;-63
2023/01/27 09:37:05;;;;;;;12.07;6.85;;;22.90;36.10;;;;;;5044295;28;20048;-65
2023/01/27 09:39:40;;;;;;;9.70;6.53;;;23.00;36.10;;;;;;5042510;28;20067;-64
2023/01/27 09:42:44;;;;;;;12.60;6.78;;;23.00;36.30;;;;;;5042337;28;20049;-65
2023/01/27 09:45:30;;;;;;;11.18;6.80;;;23.10;36.40;;;;;;5042644;28;20080;-65
2023/01/27 09:48:32;;;;;;;8.68;6.40;;;23.10;36.40;;;;;;5044242;28;20053;-65
2023/01/27 09:51:25;;;;;;;13.30;7.25;;;23.10;36.20;;;;;;5036657;28;20060;-64
2023/01/27 09:54:14;;;;;;;9.40;7.05;;;23.10;36.00;;;;;;5034688;28;20432;-66
2023/01/27 09:57:11;;;;;;;12.45;7.30;;;23.20;35.80;;;;;;5041563;28;20072;-68
2023/01/27 10:00:02;;;;;;;14.30;8.35;;;23.20;35.80;;;;;;5040326;28;20063;-72
2023/01/27 10:03:02;;;;;;;10.00;6.88;;;23.20;35.70;;;;;;5039400;28;20041;-66
2023/01/27 10:05:57;;;;;;;11.88;7.05;;;23.30;35.80;;;;;;5042497;28;20053;-68
2023/01/27 10:08:57;;;;;;;11.05;7.00;;;23.30;36.10;;;;;;5038078;28;20655;-66
2023/01/27 10:11:53;;;;;;;11.00;7.30;;;23.30;36.20;;;;;;5040986;28;20071;-68
2023/01/27 10:14:57;;;;;;;9.70;6.93;;;23.30;36.20;;;;;;5040562;28;20289;-62
2023/01/27 10:17:38;;;;;;;10.75;7.95;;;23.40;36.20;;;;;;5038295;28;20140;-65
2023/01/27 10:20:38;;;;;;;10.18;6.28;;;23.40;35.90;;;;;;5037879;28;20597;-65
2023/01/27 10:23:36;;;;;;;10.43;7.15;;;23.40;35.70;;;;;;5041394;28;20041;-64
2023/01/27 10:26:30;;;;;;;13.07;7.15;;;23.40;35.50;;;;;;5036476;28;20044;-63
2023/01/27 10:29:08;;;;;;;17.15;8.05;;;23.40;35.40;;;;;;5035609;28;20056;-61
2023/01/27 10:32:00;;;;;;;9.48;6.88;;;23.40;35.30;;;;;;5040324;28;20099;-65
2023/01/27 10:34:34;;;;;;;10.82;7.32;;;23.50;35.30;;;;;;5040824;28;20094;-66
2023/01/27 10:37:35;;;;;;;11.95;7.53;;;23.50;35.20;;;;;;5037269;28;20747;-66
2023/01/27 10:40:42;;;;;;;10.75;7.35;;;23.50;35.20;;;;;;5036668;28;20052;-65
2023/01/27 10:43:38;;;;;;;13.75;7.82;;;23.50;35.10;;;;;;5033123;28;20037;-66
2023/01/27 10:46:23;;;;;;;24.25;11.65;;;23.60;35.00;;;;;;5041517;28;20049;-63
2023/01/27 10:49:06;;;;;;;18.05;9.60;;;23.50;32.10;;;;;;5039739;28;20049;-67
2023/01/27 10:51:49;;;;;;;18.73;9.55;;;23.40;33.70;;;;;;5041452;28;20053;-63
2023/01/27 10:54:33;;;;;;;17.33;8.75;;;23.40;34.10;;;;;;5037333;28;20075;-67
2023/01/27 10:57:10;;;;;;;14.73;9.50;;;23.40;34.50;;;;;;5043624;28;20580;-69
2023/01/27 10:59:55;;;;;;;16.13;8.70;;;23.40;34.40;;;;;;5043305;28;20049;-67
2023/01/27 11:03:12;;;;;;;20.42;10.45;;;23.50;34.60;;;;;;5036973;28;20505;-70
2023/01/27 11:05:46;;;;;;;19.02;9.00;;;23.50;34.60;;;;;;5043361;28;20037;-68
2023/01/27 11:08:21;;;;;;;15.93;9.65;;;23.60;34.70;;;;;;5041635;28;20048;-66
2023/01/27 11:13:40;;;;;;;15.15;8.35;;;23.60;34.70;;;;;;5041708;28;20042;-66
2023/01/27 11:16:18;;;;;;;18.48;9.30;;;23.50;34.70;;;;;;5038261;28;20132;-66
2023/01/27 11:18:54;;;;;;;15.05;8.15;;;23.60;35.30;;;;;;5049228;28;20393;-67
2023/01/27 11:21:26;;;;;;;12.80;8.55;;;23.60;34.80;;;;;;5034882;28;20103;-67
2023/01/27 11:23:55;;;;;;;17.17;8.18;;;23.50;34.70;;;;;;5038337;28;20386;-67
2023/01/27 11:26:47;;;;;;;20.98;9.95;;;23.50;34.80;;;;;;5042244;28;20049;-68
2023/01/27 11:29:39;;;;;;;17.63;8.73;;;23.40;34.80;;;;;;5045591;28;20465;-68
2023/01/27 11:32:17;;;;;;;18.17;9.75;;;23.40;34.90;;;;;;5038021;28;20045;-67
2023/01/27 11:35:08;;;;;;;13.48;8.32;;;23.40;34.90;;;;;;5037367;28;20049;-68
2023/01/27 11:37:48;;;;;;;17.73;8.50;;;23.40;34.90;;;;;;5038708;28;20476;-69
2023/01/27 11:40:20;;;;;;;16.33;9.30;;;23.40;34.90;;;;;;5041597;28;20053;-65
2023/01/27 11:42:48;;;;;;;16.63;8.85;;;23.30;34.80;;;;;;5046189;28;20041;-68
2023/01/27 11:45:20;;;;;;;16.08;9.27;;;23.40;34.90;;;;;;5046735;28;20059;-66
2023/01/27 11:47:53;;;;;;;18.58;9.27;;;23.40;34.90;;;;;;5046642;28;20132;-66
2023/01/27 11:50:23;;;;;;;16.90;9.25;;;23.40;35.00;;;;;;5038419;28;20049;-65
2023/01/27 11:53:02;;;;;;;18.27;9.18;;;23.40;35.00;;;;;;5041572;28;20074;-66
2023/01/27 11:55:40;;;;;;;17.73;9.50;;;23.40;35.00;;;;;;5040445;28;20053;-63
2023/01/27 11:58:24;;;;;;;13.60;7.82;;;23.40;35.00;;;;;;5041669;28;20068;-63
2023/01/27 12:01:14;;;;;;;19.02;9.70;;;23.40;35.30;;;;;;5039946;28;22108;-64
2023/01/27 12:04:18;;;;;;;20.75;8.85;;;23.40;35.40;;;;;;5043053;28;20045;-67
2023/01/27 12:06:52;;;;;;;25.73;10.63;;;23.40;35.30;;;;;;5041319;28;20128;-65
2023/01/27 12:09:35;;;;;;;19.67;9.43;;;23.40;35.30;;;;;;5040103;28;20525;-68
2023/01/27 12:12:23;;;;;;;21.63;10.75;;;23.40;35.60;;;;;;5045278;28;20060;-64
2023/01/27 12:14:56;;;;;;;35.20;12.88;;;23.40;35.60;;;;;;5043406;28;20045;-67
2023/01/27 12:17:32;;;;;;;23.15;11.77;;;23.50;35.80;;;;;;5043639;28;20087;-64
2023/01/27 12:20:25;;;;;;;25.05;12.07;;;23.50;35.70;;;;;;5042660;28;20584;-65
2023/01/27 12:22:55;;;;;;;27.25;12.18;;;23.60;35.70;;;;;;5036176;28;20136;-65
2023/01/27 12:25:27;;;;;;;26.08;10.85;;;23.60;35.70;;;;;;5039703;28;20140;-69
2023/01/27 12:28:00;;;;;;;20.98;10.20;;;23.60;35.50;;;;;;5047725;28;20045;-66
2023/01/27 12:30:37;;;;;;;23.60;12.10;;;23.70;35.50;;;;;;5042923;28;20080;-66
2023/01/27 12:33:18;;;;;;;26.77;12.70;;;23.70;35.60;;;;;;5035238;28;20053;-64
2023/01/27 12:35:48;;;;;;;35.35;12.32;;;23.70;35.50;;;;;;5044611;28;20139;-67
2023/01/27 12:38:23;;;;;;;26.45;11.82;;;23.70;35.60;;;;;;5043164;28;20047;-64
2023/01/27 12:40:58;;;;;;;25.02;12.00;;;23.70;35.50;;;;;;5049027;28;20501;-65
2023/01/27 12:43:26;;;;;;;22.10;11.18;;;23.70;35.60;;;;;;5045733;28;20481;-63
2023/01/27 12:46:18;;;;;;;24.98;11.80;;;23.60;35.60;;;;;;5043405;28;20492;-63
2023/01/27 12:48:49;;;;;;;23.20;11.55;;;23.60;35.70;;;;;;5044865;28;20095;-63
2023/01/27 12:51:22;;;;;;;28.27;12.82;;;23.60;35.70;;;;;;5041497;28;20123;-62
2023/01/27 12:54:10;;;;;;;26.67;12.43;;;23.60;35.80;;;;;;5042066;28;20139;-64
2023/01/27 12:56:38;;;;;;;31.23;12.85;;;23.60;35.70;;;;;;5042807;28;20139;-67
2023/01/27 12:59:14;;;;;;;26.65;13.18;;;23.60;35.70;;;;;;5042259;28;20045;-61
2023/01/27 13:01:43;;;;;;;26.55;12.00;;;23.60;35.60;;;;;;5039373;28;20072;-64
2023/01/27 13:04:18;;;;;;;29.95;12.15;;;23.70;35.60;;;;;;5042490;28;20055;-64
2023/01/27 13:06:53;;;;;;;29.70;13.90;;;23.70;35.40;;;;;;5044959;28;20485;-64
2023/01/27 13:09:38;;;;;;;29.20;14.48;;;23.70;35.30;;;;;;5039961;28;20057;-65
2023/01/27 13:12:29;;;;;;;37.75;16.50;;;23.70;35.10;;;;;;5054084;28;20041;-66
2023/01/27 13:15:04;;;;;;;50.65;19.48;;;23.70;35.00;;;;;;5044639;28;20052;-63
2023/01/27 13:17:49;;;;;;;42.05;18.17;;;23.60;35.00;;;;;;5047327;28;20048;-64
2023/01/27 13:20:41;;;;;;;41.75;17.88;;;23.60;35.00;;;;;;5048016;28;20081;-66
2023/01/27 13:23:20;;;;;;;40.90;17.83;;;23.60;35.00;;;;;;5032264;28;20053;-67
2023/01/27 13:26:13;;;;;;;39.33;16.17;;;23.50;35.00;;;;;;5033955;28;20046;-67
2023/01/27 13:29:14;;;;;;;33.88;15.60;;;23.40;34.90;;;;;;5043813;28;20124;-67
2023/01/27 13:32:02;;;;;;;36.55;15.95;;;23.40;35.00;;;;;;5051379;28;20053;-66
2023/01/27 13:34:44;;;;;;;37.47;15.80;;;23.30;35.10;;;;;;5053673;28;20052;-66
2023/01/27 13:37:22;;;;;;;36.58;14.52;;;23.30;35.10;;;;;;5054645;28;20049;-67
2023/01/27 13:40:16;;;;;;;33.83;13.63;;;23.20;35.20;;;;;;5051625;28;20041;-66
2023/01/27 13:43:08;;;;;;;33.60;13.23;;;23.20;35.20;;;;;;5043973;28;20516;-66
2023/01/27 13:46:05;;;;;;;34.72;13.73;;;23.10;35.40;;;;;;5054330;28;20477;-66
2023/01/27 13:48:47;;;;;;;28.77;13.00;;;23.10;36.30;;;;;;5052222;28;20508;-66